sensor_id;sensor_type;location;lat;lon;timestamp;pressure;altitude;pressure_sealevel;temperature
11424;BMP180;5768;51.476;7.210;2022-12-26T00:04:26;99655.00;;;14.30
11424;BMP180;5768;51.476;7.210;2022-12-26T00:09:28;99663.00;;;14.30
11424;BMP180;5768;51.476;7.210;2022-12-26T00:14:34;99664.00;;;14.30
11424;BMP180;5768;51.476;7.210;2022-12-26T00:19:36;99652.00;;;14.20
11424;BMP180;5768;51.476;7.210;2022-12-26T00:24:38;99661.00;;;14.10
11424;BMP180;5768;51.476;7.210;2022-12-26T00:29:42;99665.00;;;14.10
11424;BMP180;5768;51.476;7.210;2022-12-26T00:34:44;99664.00;;;14.30
11424;BMP180;5768;51.476;7.210;2022-12-26T00:39:46;99656.00;;;14.30
11424;BMP180;5768;51.476;7.210;2022-12-26T00:44:50;99668.00;;;14.30
11424;BMP180;5768;51.476;7.210;2022-12-26T00:49:52;99656.00;;;14.40
11424;BMP180;5768;51.476;7.210;2022-12-26T00:55:00;99650.00;;;14.30
11424;BMP180;5768;51.476;7.210;2022-12-26T01:00:05;99655.00;;;14.30
11424;BMP180;5768;51.476;7.210;2022-12-26T01:05:10;99666.00;;;14.20
11424;BMP180;5768;51.476;7.210;2022-12-26T01:10:13;99674.00;;;14.10
11424;BMP180;5768;51.476;7.210;2022-12-26T01:15:17;99668.00;;;14.10
11424;BMP180;5768;51.476;7.210;2022-12-26T01:20:19;99685.00;;;14.20
11424;BMP180;5768;51.476;7.210;2022-12-26T01:25:21;99685.00;;;14.10
11424;BMP180;5768;51.476;7.210;2022-12-26T01:30:25;99682.00;;;14.20
11424;BMP180;5768;51.476;7.210;2022-12-26T01:35:27;99691.00;;;14.20
11424;BMP180;5768;51.476;7.210;2022-12-26T01:40:29;99710.00;;;14.20
11424;BMP180;5768;51.476;7.210;2022-12-26T01:45:34;99711.00;;;14.10
11424;BMP180;5768;51.476;7.210;2022-12-26T01:50:43;99702.00;;;14.10
11424;BMP180;5768;51.476;7.210;2022-12-26T01:55:53;99712.00;;;14.10
11424;BMP180;5768;51.476;7.210;2022-12-26T02:00:58;99700.00;;;14.20
11424;BMP180;5768;51.476;7.210;2022-12-26T02:06:05;99705.00;;;14.20
11424;BMP180;5768;51.476;7.210;2022-12-26T02:11:15;99694.00;;;14.10
11424;BMP180;5768;51.476;7.210;2022-12-26T02:16:20;99710.00;;;14.20
11424;BMP180;5768;51.476;7.210;2022-12-26T02:33:59;99725.00;;;14.10
11424;BMP180;5768;51.476;7.210;2022-12-26T02:39:25;99713.00;;;14.10
11424;BMP180;5768;51.476;7.210;2022-12-26T02:44:40;99727.00;;;14.10
11424;BMP180;5768;51.476;7.210;2022-12-26T02:50:12;99734.00;;;14.10
11424;BMP180;5768;51.476;7.210;2022-12-26T02:55:40;99731.00;;;14.10
11424;BMP180;5768;51.476;7.210;2022-12-26T03:01:07;99726.00;;;14.00
11424;BMP180;5768;51.476;7.210;2022-12-26T03:06:36;99736.00;;;13.90
11424;BMP180;5768;51.476;7.210;2022-12-26T03:12:02;99742.00;;;13.90
11424;BMP180;5768;51.476;7.210;2022-12-26T03:17:29;99748.00;;;14.00
11424;BMP180;5768;51.476;7.210;2022-12-26T03:22:40;99739.00;;;14.00
11424;BMP180;5768;51.476;7.210;2022-12-26T03:27:44;99741.00;;;14.10
11424;BMP180;5768;51.476;7.210;2022-12-26T03:32:47;99746.00;;;14.10
11424;BMP180;5768;51.476;7.210;2022-12-26T03:37:54;99739.00;;;14.10
11424;BMP180;5768;51.476;7.210;2022-12-26T03:43:09;99741.00;;;14.10
11424;BMP180;5768;51.476;7.210;2022-12-26T03:48:43;99744.00;;;14.00
11424;BMP180;5768;51.476;7.210;2022-12-26T03:54:12;99756.00;;;13.90
11424;BMP180;5768;51.476;7.210;2022-12-26T03:59:40;99751.00;;;13.90
11424;BMP180;5768;51.476;7.210;2022-12-26T04:05:04;99752.00;;;13.90
11424;BMP180;5768;51.476;7.210;2022-12-26T04:10:37;99763.00;;;14.00
11424;BMP180;5768;51.476;7.210;2022-12-26T04:16:03;99766.00;;;14.00
11424;BMP180;5768;51.476;7.210;2022-12-26T04:21:40;99767.00;;;13.90
11424;BMP180;5768;51.476;7.210;2022-12-26T04:27:07;99791.00;;;13.70
11424;BMP180;5768;51.476;7.210;2022-12-26T04:32:38;99799.00;;;13.60
11424;BMP180;5768;51.476;7.210;2022-12-26T04:37:59;99786.00;;;13.40
11424;BMP180;5768;51.476;7.210;2022-12-26T04:43:22;99783.00;;;13.40
11424;BMP180;5768;51.476;7.210;2022-12-26T04:48:44;99796.00;;;13.40
11424;BMP180;5768;51.476;7.210;2022-12-26T04:54:05;99786.00;;;13.40
11424;BMP180;5768;51.476;7.210;2022-12-26T04:59:09;99810.00;;;13.40
11424;BMP180;5768;51.476;7.210;2022-12-26T05:04:18;99806.00;;;13.40
11424;BMP180;5768;51.476;7.210;2022-12-26T05:09:38;99797.00;;;13.30
11424;BMP180;5768;51.476;7.210;2022-12-26T05:14:42;99803.00;;;13.20
11424;BMP180;5768;51.476;7.210;2022-12-26T05:19:44;99806.00;;;13.20
11424;BMP180;5768;51.476;7.210;2022-12-26T05:25:12;99791.00;;;13.10
11424;BMP180;5768;51.476;7.210;2022-12-26T05:30:36;99795.00;;;13.10
11424;BMP180;5768;51.476;7.210;2022-12-26T05:35:39;99807.00;;;13.00
11424;BMP180;5768;51.476;7.210;2022-12-26T05:40:41;99806.00;;;13.00
11424;BMP180;5768;51.476;7.210;2022-12-26T05:45:44;99804.00;;;12.90
11424;BMP180;5768;51.476;7.210;2022-12-26T05:50:46;99806.00;;;12.90
11424;BMP180;5768;51.476;7.210;2022-12-26T05:55:48;99819.00;;;12.90
11424;BMP180;5768;51.476;7.210;2022-12-26T06:00:51;99821.00;;;12.90
11424;BMP180;5768;51.476;7.210;2022-12-26T06:05:55;99827.00;;;12.90
11424;BMP180;5768;51.476;7.210;2022-12-26T06:11:02;99812.00;;;12.90
11424;BMP180;5768;51.476;7.210;2022-12-26T06:16:08;99794.00;;;12.90
11424;BMP180;5768;51.476;7.210;2022-12-26T06:21:13;99788.00;;;12.90
11424;BMP180;5768;51.476;7.210;2022-12-26T06:26:15;99788.00;;;12.90
11424;BMP180;5768;51.476;7.210;2022-12-26T06:31:22;99782.00;;;12.90
11424;BMP180;5768;51.476;7.210;2022-12-26T06:36:26;99794.00;;;12.90
11424;BMP180;5768;51.476;7.210;2022-12-26T06:41:28;99788.00;;;12.90
11424;BMP180;5768;51.476;7.210;2022-12-26T06:46:32;99797.00;;;12.90
11424;BMP180;5768;51.476;7.210;2022-12-26T06:51:34;99793.00;;;13.00
11424;BMP180;5768;51.476;7.210;2022-12-26T06:56:36;99802.00;;;13.00
11424;BMP180;5768;51.476;7.210;2022-12-26T07:01:39;99808.00;;;13.10
11424;BMP180;5768;51.476;7.210;2022-12-26T07:06:41;99812.00;;;13.10
11424;BMP180;5768;51.476;7.210;2022-12-26T07:11:46;99821.00;;;13.10
11424;BMP180;5768;51.476;7.210;2022-12-26T07:16:50;99834.00;;;13.20
11424;BMP180;5768;51.476;7.210;2022-12-26T07:21:52;99854.00;;;13.20
11424;BMP180;5768;51.476;7.210;2022-12-26T07:26:54;99868.00;;;13.30
11424;BMP180;5768;51.476;7.210;2022-12-26T07:31:57;99849.00;;;13.30
11424;BMP180;5768;51.476;7.210;2022-12-26T07:36:59;99855.00;;;13.30
11424;BMP180;5768;51.476;7.210;2022-12-26T07:42:01;99873.00;;;13.40
11424;BMP180;5768;51.476;7.210;2022-12-26T07:47:05;99849.00;;;13.40
11424;BMP180;5768;51.476;7.210;2022-12-26T07:52:06;99883.00;;;13.40
11424;BMP180;5768;51.476;7.210;2022-12-26T07:57:08;99879.00;;;13.40
11424;BMP180;5768;51.476;7.210;2022-12-26T08:02:12;99886.00;;;13.40
11424;BMP180;5768;51.476;7.210;2022-12-26T08:07:14;99876.00;;;13.30
11424;BMP180;5768;51.476;7.210;2022-12-26T08:12:16;99890.00;;;13.30
11424;BMP180;5768;51.476;7.210;2022-12-26T08:17:25;99901.00;;;13.40
11424;BMP180;5768;51.476;7.210;2022-12-26T08:22:27;99913.00;;;13.50
11424;BMP180;5768;51.476;7.210;2022-12-26T08:27:29;99896.00;;;13.50
11424;BMP180;5768;51.476;7.210;2022-12-26T08:32:33;99906.00;;;13.60
11424;BMP180;5768;51.476;7.210;2022-12-26T08:37:35;99903.00;;;13.60
11424;BMP180;5768;51.476;7.210;2022-12-26T08:42:37;99892.00;;;13.60
11424;BMP180;5768;51.476;7.210;2022-12-26T08:47:41;99899.00;;;13.60
11424;BMP180;5768;51.476;7.210;2022-12-26T08:52:43;99906.00;;;13.70
11424;BMP180;5768;51.476;7.210;2022-12-26T08:57:45;99906.00;;;13.70
11424;BMP180;5768;51.476;7.210;2022-12-26T09:02:48;99925.00;;;13.60
11424;BMP180;5768;51.476;7.210;2022-12-26T09:07:50;99925.00;;;13.60
11424;BMP180;5768;51.476;7.210;2022-12-26T09:12:52;99934.00;;;13.70
11424;BMP180;5768;51.476;7.210;2022-12-26T09:17:55;99934.00;;;13.60
11424;BMP180;5768;51.476;7.210;2022-12-26T09:22:57;99932.00;;;13.60
11424;BMP180;5768;51.476;7.210;2022-12-26T09:28:00;99938.00;;;13.60
11424;BMP180;5768;51.476;7.210;2022-12-26T09:33:04;99946.00;;;13.70
11424;BMP180;5768;51.476;7.210;2022-12-26T09:38:07;99943.00;;;13.70
11424;BMP180;5768;51.476;7.210;2022-12-26T09:43:20;99962.00;;;13.70
11424;BMP180;5768;51.476;7.210;2022-12-26T09:48:33;99956.00;;;13.90
11424;BMP180;5768;51.476;7.210;2022-12-26T09:53:41;99957.00;;;13.90
11424;BMP180;5768;51.476;7.210;2022-12-26T09:58:48;99988.00;;;13.80
11424;BMP180;5768;51.476;7.210;2022-12-26T10:03:56;99962.00;;;13.80
11424;BMP180;5768;51.476;7.210;2022-12-26T10:09:24;99981.00;;;13.80
11424;BMP180;5768;51.476;7.210;2022-12-26T10:14:40;99974.00;;;14.00
11424;BMP180;5768;51.476;7.210;2022-12-26T10:20:03;99980.00;;;14.00
11424;BMP180;5768;51.476;7.210;2022-12-26T10:25:17;99968.00;;;14.10
11424;BMP180;5768;51.476;7.210;2022-12-26T10:30:24;99965.00;;;14.00
11424;BMP180;5768;51.476;7.210;2022-12-26T10:35:36;99967.00;;;14.00
11424;BMP180;5768;51.476;7.210;2022-12-26T10:40:42;99969.00;;;14.00
11424;BMP180;5768;51.476;7.210;2022-12-26T10:46:02;99956.00;;;14.20
11424;BMP180;5768;51.476;7.210;2022-12-26T10:51:09;99965.00;;;14.30
11424;BMP180;5768;51.476;7.210;2022-12-26T10:56:13;99963.00;;;14.30
11424;BMP180;5768;51.476;7.210;2022-12-26T11:01:34;99955.00;;;14.40
11424;BMP180;5768;51.476;7.210;2022-12-26T11:06:41;99943.00;;;14.40
11424;BMP180;5768;51.476;7.210;2022-12-26T11:11:48;99950.00;;;14.30
11424;BMP180;5768;51.476;7.210;2022-12-26T11:16:52;99958.00;;;14.30
11424;BMP180;5768;51.476;7.210;2022-12-26T11:22:24;99963.00;;;14.30
11424;BMP180;5768;51.476;7.210;2022-12-26T11:27:26;99957.00;;;14.30
11424;BMP180;5768;51.476;7.210;2022-12-26T11:32:29;99958.00;;;14.20
11424;BMP180;5768;51.476;7.210;2022-12-26T11:37:39;99958.00;;;14.20
11424;BMP180;5768;51.476;7.210;2022-12-26T11:42:47;99975.00;;;14.10
11424;BMP180;5768;51.476;7.210;2022-12-26T11:47:52;99970.00;;;13.20
11424;BMP180;5768;51.476;7.210;2022-12-26T11:53:08;99966.00;;;12.80
11424;BMP180;5768;51.476;7.210;2022-12-26T11:58:20;99962.00;;;12.70
11424;BMP180;5768;51.476;7.210;2022-12-26T12:03:34;99944.00;;;12.90
11424;BMP180;5768;51.476;7.210;2022-12-26T12:08:45;99936.00;;;12.90
11424;BMP180;5768;51.476;7.210;2022-12-26T12:14:05;99949.00;;;13.00
11424;BMP180;5768;51.476;7.210;2022-12-26T12:19:28;99956.00;;;13.20
11424;BMP180;5768;51.476;7.210;2022-12-26T12:24:48;99960.00;;;13.40
11424;BMP180;5768;51.476;7.210;2022-12-26T12:30:11;99932.00;;;14.00
11424;BMP180;5768;51.476;7.210;2022-12-26T12:35:33;99968.00;;;14.40
11424;BMP180;5768;51.476;7.210;2022-12-26T12:40:51;99950.00;;;14.70
11424;BMP180;5768;51.476;7.210;2022-12-26T12:46:05;99953.00;;;14.60
11424;BMP180;5768;51.476;7.210;2022-12-26T12:51:19;99964.00;;;14.40
11424;BMP180;5768;51.476;7.210;2022-12-26T12:56:33;100000.00;;;14.20
11424;BMP180;5768;51.476;7.210;2022-12-26T13:01:44;100017.00;;;12.60
11424;BMP180;5768;51.476;7.210;2022-12-26T13:06:52;100018.00;;;11.80
11424;BMP180;5768;51.476;7.210;2022-12-26T13:12:02;100026.00;;;11.50
11424;BMP180;5768;51.476;7.210;2022-12-26T13:17:10;100028.00;;;11.40
11424;BMP180;5768;51.476;7.210;2022-12-26T13:22:22;100020.00;;;11.30
11424;BMP180;5768;51.476;7.210;2022-12-26T13:27:34;100020.00;;;11.30
11424;BMP180;5768;51.476;7.210;2022-12-26T13:32:37;100020.00;;;11.10
11424;BMP180;5768;51.476;7.210;2022-12-26T13:37:56;100034.00;;;11.10
11424;BMP180;5768;51.476;7.210;2022-12-26T13:43:08;100043.00;;;11.20
11424;BMP180;5768;51.476;7.210;2022-12-26T13:49:25;100053.00;;;11.20
11424;BMP180;5768;51.476;7.210;2022-12-26T13:54:29;100051.00;;;11.20
11424;BMP180;5768;51.476;7.210;2022-12-26T13:59:38;100039.00;;;11.30
11424;BMP180;5768;51.476;7.210;2022-12-26T14:04:55;100058.00;;;11.30
11424;BMP180;5768;51.476;7.210;2022-12-26T14:10:11;100061.00;;;11.20
11424;BMP180;5768;51.476;7.210;2022-12-26T14:15:49;100075.00;;;11.20
11424;BMP180;5768;51.476;7.210;2022-12-26T14:21:22;100094.00;;;11.20
11424;BMP180;5768;51.476;7.210;2022-12-26T14:26:39;100109.00;;;11.10
11424;BMP180;5768;51.476;7.210;2022-12-26T14:32:05;100132.00;;;11.20
11424;BMP180;5768;51.476;7.210;2022-12-26T14:37:19;100122.00;;;11.20
11424;BMP180;5768;51.476;7.210;2022-12-26T14:42:25;100121.00;;;11.00
11424;BMP180;5768;51.476;7.210;2022-12-26T14:47:48;100146.00;;;10.90
11424;BMP180;5768;51.476;7.210;2022-12-26T14:52:50;100159.00;;;11.00
11424;BMP180;5768;51.476;7.210;2022-12-26T14:57:53;100159.00;;;11.00
11424;BMP180;5768;51.476;7.210;2022-12-26T15:03:40;100175.00;;;11.00
11424;BMP180;5768;51.476;7.210;2022-12-26T15:09:06;100182.00;;;11.00
11424;BMP180;5768;51.476;7.210;2022-12-26T15:31:54;100206.00;;;10.70
11424;BMP180;5768;51.476;7.210;2022-12-26T15:37:08;100201.00;;;10.70
11424;BMP180;5768;51.476;7.210;2022-12-26T15:42:36;100209.00;;;10.70
11424;BMP180;5768;51.476;7.210;2022-12-26T15:47:49;100210.00;;;10.60
11424;BMP180;5768;51.476;7.210;2022-12-26T15:53:12;100230.00;;;10.60
11424;BMP180;5768;51.476;7.210;2022-12-26T15:58:57;100242.00;;;10.50
11424;BMP180;5768;51.476;7.210;2022-12-26T16:04:06;100253.00;;;10.40
11424;BMP180;5768;51.476;7.210;2022-12-26T16:09:35;100264.00;;;10.20
11424;BMP180;5768;51.476;7.210;2022-12-26T16:14:39;100248.00;;;10.00
11424;BMP180;5768;51.476;7.210;2022-12-26T16:19:43;100266.00;;;9.70
11424;BMP180;5768;51.476;7.210;2022-12-26T16:24:49;100263.00;;;9.50
11424;BMP180;5768;51.476;7.210;2022-12-26T16:29:57;100268.00;;;9.60
11424;BMP180;5768;51.476;7.210;2022-12-26T16:35:06;100287.00;;;9.70
11424;BMP180;5768;51.476;7.210;2022-12-26T16:40:22;100298.00;;;9.70
11424;BMP180;5768;51.476;7.210;2022-12-26T16:45:26;100314.00;;;9.80
11424;BMP180;5768;51.476;7.210;2022-12-26T16:50:30;100313.00;;;9.80
11424;BMP180;5768;51.476;7.210;2022-12-26T16:55:39;100323.00;;;9.70
11424;BMP180;5768;51.476;7.210;2022-12-26T17:00:53;100332.00;;;9.50
11424;BMP180;5768;51.476;7.210;2022-12-26T17:06:06;100332.00;;;9.40
11424;BMP180;5768;51.476;7.210;2022-12-26T17:11:11;100342.00;;;9.30
11424;BMP180;5768;51.476;7.210;2022-12-26T17:16:15;100361.00;;;9.30
11424;BMP180;5768;51.476;7.210;2022-12-26T17:21:25;100376.00;;;9.20
11424;BMP180;5768;51.476;7.210;2022-12-26T17:26:32;100378.00;;;9.10
11424;BMP180;5768;51.476;7.210;2022-12-26T17:31:39;100378.00;;;9.00
11424;BMP180;5768;51.476;7.210;2022-12-26T17:36:41;100383.00;;;8.90
11424;BMP180;5768;51.476;7.210;2022-12-26T17:41:54;100382.00;;;8.80
11424;BMP180;5768;51.476;7.210;2022-12-26T17:46:56;100406.00;;;8.80
11424;BMP180;5768;51.476;7.210;2022-12-26T17:51:59;100399.00;;;8.80
11424;BMP180;5768;51.476;7.210;2022-12-26T17:57:02;100408.00;;;8.80
11424;BMP180;5768;51.476;7.210;2022-12-26T18:02:04;100408.00;;;8.80
11424;BMP180;5768;51.476;7.210;2022-12-26T18:07:17;100418.00;;;8.70
11424;BMP180;5768;51.476;7.210;2022-12-26T18:12:21;100441.00;;;8.60
11424;BMP180;5768;51.476;7.210;2022-12-26T18:17:24;100451.00;;;8.60
11424;BMP180;5768;51.476;7.210;2022-12-26T18:22:27;100464.00;;;8.60
11424;BMP180;5768;51.476;7.210;2022-12-26T18:27:32;100465.00;;;8.40
11424;BMP180;5768;51.476;7.210;2022-12-26T18:32:34;100469.00;;;8.20
11424;BMP180;5768;51.476;7.210;2022-12-26T18:37:37;100467.00;;;8.20
11424;BMP180;5768;51.476;7.210;2022-12-26T18:42:40;100478.00;;;8.10
11424;BMP180;5768;51.476;7.210;2022-12-26T18:47:42;100477.00;;;8.00
11424;BMP180;5768;51.476;7.210;2022-12-26T18:52:46;100491.00;;;7.90
11424;BMP180;5768;51.476;7.210;2022-12-26T18:57:51;100486.00;;;7.70
11424;BMP180;5768;51.476;7.210;2022-12-26T19:02:53;100517.00;;;7.70
11424;BMP180;5768;51.476;7.210;2022-12-26T19:07:57;100513.00;;;7.60
11424;BMP180;5768;51.476;7.210;2022-12-26T19:13:02;100519.00;;;7.60
11424;BMP180;5768;51.476;7.210;2022-12-26T19:18:05;100544.00;;;7.50
11424;BMP180;5768;51.476;7.210;2022-12-26T19:23:07;100541.00;;;7.50
11424;BMP180;5768;51.476;7.210;2022-12-26T19:28:10;100554.00;;;7.40
11424;BMP180;5768;51.476;7.210;2022-12-26T19:33:12;100564.00;;;7.40
11424;BMP180;5768;51.476;7.210;2022-12-26T19:38:14;100570.00;;;7.30
11424;BMP180;5768;51.476;7.210;2022-12-26T19:43:18;100578.00;;;7.30
11424;BMP180;5768;51.476;7.210;2022-12-26T19:48:20;100576.00;;;7.20
11424;BMP180;5768;51.476;7.210;2022-12-26T19:53:22;100594.00;;;7.20
11424;BMP180;5768;51.476;7.210;2022-12-26T19:58:29;100608.00;;;7.10
11424;BMP180;5768;51.476;7.210;2022-12-26T20:03:31;100622.00;;;7.10
11424;BMP180;5768;51.476;7.210;2022-12-26T20:08:33;100631.00;;;7.10
11424;BMP180;5768;51.476;7.210;2022-12-26T20:13:36;100637.00;;;7.00
11424;BMP180;5768;51.476;7.210;2022-12-26T20:18:40;100625.00;;;7.00
11424;BMP180;5768;51.476;7.210;2022-12-26T20:23:43;100633.00;;;6.90
11424;BMP180;5768;51.476;7.210;2022-12-26T20:28:47;100637.00;;;6.80
11424;BMP180;5768;51.476;7.210;2022-12-26T20:33:53;100647.00;;;6.80
11424;BMP180;5768;51.476;7.210;2022-12-26T20:38:59;100643.00;;;6.80
11424;BMP180;5768;51.476;7.210;2022-12-26T20:44:03;100653.00;;;6.70
11424;BMP180;5768;51.476;7.210;2022-12-26T20:49:05;100652.00;;;6.70
11424;BMP180;5768;51.476;7.210;2022-12-26T20:54:10;100654.00;;;6.70
11424;BMP180;5768;51.476;7.210;2022-12-26T20:59:14;100656.00;;;6.70
11424;BMP180;5768;51.476;7.210;2022-12-26T21:04:19;100648.00;;;6.60
11424;BMP180;5768;51.476;7.210;2022-12-26T21:09:22;100662.00;;;6.60
11424;BMP180;5768;51.476;7.210;2022-12-26T21:14:25;100668.00;;;6.60
11424;BMP180;5768;51.476;7.210;2022-12-26T21:19:28;100672.00;;;6.60
11424;BMP180;5768;51.476;7.210;2022-12-26T21:24:30;100664.00;;;6.60
11424;BMP180;5768;51.476;7.210;2022-12-26T21:29:35;100672.00;;;6.70
11424;BMP180;5768;51.476;7.210;2022-12-26T21:34:41;100674.00;;;6.70
11424;BMP180;5768;51.476;7.210;2022-12-26T21:39:43;100677.00;;;6.80
11424;BMP180;5768;51.476;7.210;2022-12-26T21:44:48;100679.00;;;7.00
11424;BMP180;5768;51.476;7.210;2022-12-26T21:49:50;100688.00;;;7.20
11424;BMP180;5768;51.476;7.210;2022-12-26T21:54:52;100690.00;;;7.20
11424;BMP180;5768;51.476;7.210;2022-12-26T22:00:14;100704.00;;;7.30
11424;BMP180;5768;51.476;7.210;2022-12-26T22:05:19;100683.00;;;7.20
11424;BMP180;5768;51.476;7.210;2022-12-26T22:10:22;100689.00;;;7.10
11424;BMP180;5768;51.476;7.210;2022-12-26T22:15:46;100699.00;;;7.00
11424;BMP180;5768;51.476;7.210;2022-12-26T22:21:10;100713.00;;;7.20
11424;BMP180;5768;51.476;7.210;2022-12-26T22:26:13;100718.00;;;7.20
11424;BMP180;5768;51.476;7.210;2022-12-26T22:31:21;100727.00;;;7.10
11424;BMP180;5768;51.476;7.210;2022-12-26T22:36:24;100743.00;;;7.10
11424;BMP180;5768;51.476;7.210;2022-12-26T22:41:27;100737.00;;;7.10
11424;BMP180;5768;51.476;7.210;2022-12-26T22:46:31;100738.00;;;7.10
11424;BMP180;5768;51.476;7.210;2022-12-26T22:51:33;100742.00;;;7.00
11424;BMP180;5768;51.476;7.210;2022-12-26T22:56:35;100752.00;;;7.00
11424;BMP180;5768;51.476;7.210;2022-12-26T23:01:39;100743.00;;;6.90
11424;BMP180;5768;51.476;7.210;2022-12-26T23:06:42;100755.00;;;6.90
11424;BMP180;5768;51.476;7.210;2022-12-26T23:11:44;100768.00;;;6.90
11424;BMP180;5768;51.476;7.210;2022-12-26T23:17:14;100782.00;;;6.80
11424;BMP180;5768;51.476;7.210;2022-12-26T23:22:38;100767.00;;;6.80
11424;BMP180;5768;51.476;7.210;2022-12-26T23:27:40;100760.00;;;6.80
11424;BMP180;5768;51.476;7.210;2022-12-26T23:33:01;100767.00;;;6.80
11424;BMP180;5768;51.476;7.210;2022-12-26T23:38:03;100768.00;;;6.80
11424;BMP180;5768;51.476;7.210;2022-12-26T23:43:05;100766.00;;;6.80
11424;BMP180;5768;51.476;7.210;2022-12-26T23:48:09;100779.00;;;6.80
11424;BMP180;5768;51.476;7.210;2022-12-26T23:53:11;100797.00;;;6.90
11424;BMP180;5768;51.476;7.210;2022-12-26T23:58:13;100780.00;;;6.80
